Time;durP1;ratioP1;P1;durP2;ratioP2;P2;SDS_P1;SDS_P2;PMS_P1;PMS_P2;Temp;Humidity;BMP_temperature;BMP_pressure;BME280_temperature;BME280_humidity;BME280_pressure;Samples;Min_cycle;Max_cycle;Signal;HPM_P1;HPM_P2
2024/03/17 00:01:43;;;;;;;5.27;4.87;;;10.00;1.00;;;;;;5078016;28;20966;-84
2024/03/17 00:04:10;;;;;;;5.50;5.10;;;10.00;1.00;;;;;;5071721;28;20470;-82
2024/03/17 00:06:38;;;;;;;4.63;4.33;;;10.00;1.00;;;;;;5073201;28;20742;-82
2024/03/17 00:09:09;;;;;;;5.17;4.77;;;10.00;1.00;;;;;;5071973;28;21117;-83
2024/03/17 00:11:35;;;;;;;4.70;4.30;;;10.00;1.00;;;;;;5068673;28;20450;-83
2024/03/17 00:14:03;;;;;;;4.87;4.53;;;10.00;1.00;;;;;;5070942;28;20480;-83
2024/03/17 00:16:29;;;;;;;5.23;4.73;;;10.00;1.00;;;;;;5073024;28;20496;-83
2024/03/17 00:18:56;;;;;;;4.13;3.80;;;10.00;1.00;;;;;;5077297;28;20454;-82
2024/03/17 00:21:22;;;;;;;4.80;4.43;;;9.90;1.00;;;;;;5077526;28;20485;-83
2024/03/17 00:23:51;;;;;;;4.90;4.50;;;9.90;1.00;;;;;;5070161;28;20463;-82
2024/03/17 00:26:19;;;;;;;4.60;4.40;;;9.90;1.00;;;;;;5075142;28;20469;-83
2024/03/17 00:28:50;;;;;;;5.83;4.00;;;9.90;1.00;;;;;;5076612;28;20538;-83
2024/03/17 00:31:16;;;;;;;4.33;4.00;;;9.90;1.00;;;;;;5061146;28;21041;-83
2024/03/17 00:33:44;;;;;;;5.30;4.03;;;9.80;1.00;;;;;;5072123;28;20482;-82
2024/03/17 00:36:10;;;;;;;4.37;4.07;;;9.80;1.00;;;;;;5058234;28;20503;-83
2024/03/17 00:38:37;;;;;;;4.10;3.80;;;9.80;1.00;;;;;;5052434;28;20451;-85
2024/03/17 00:41:06;;;;;;;4.77;4.27;;;9.80;1.00;;;;;;5064284;28;20468;-83
2024/03/17 00:43:33;;;;;;;4.87;4.50;;;9.80;1.00;;;;;;5072336;28;20477;-83
2024/03/17 00:45:59;;;;;;;5.47;5.07;;;9.70;1.00;;;;;;5080504;28;21136;-82
2024/03/17 00:48:26;;;;;;;4.90;4.60;;;9.70;1.00;;;;;;5062679;28;20453;-83
2024/03/17 00:50:56;;;;;;;4.17;3.87;;;9.70;1.00;;;;;;5071666;28;20475;-82
2024/03/17 00:53:23;;;;;;;4.60;4.20;;;9.70;1.00;;;;;;5075086;28;20496;-83
2024/03/17 00:55:53;;;;;;;7.03;4.80;;;9.70;1.00;;;;;;5074232;28;20486;-83
2024/03/17 00:58:22;;;;;;;5.77;4.60;;;9.60;1.00;;;;;;5052264;28;20445;-83
2024/03/17 01:00:49;;;;;;;4.30;3.93;;;9.70;1.00;;;;;;5071392;28;20454;-83
2024/03/17 01:03:17;;;;;;;6.03;5.53;;;9.70;1.00;;;;;;5075088;28;20442;-83
2024/03/17 01:05:44;;;;;;;6.70;6.10;;;9.70;1.00;;;;;;5071476;28;21104;-83
2024/03/17 01:08:12;;;;;;;5.40;5.10;;;9.60;1.00;;;;;;5069355;28;20439;-83
2024/03/17 01:10:39;;;;;;;6.93;5.83;;;9.70;1.00;;;;;;5069277;28;20495;-81
2024/03/17 01:13:08;;;;;;;6.17;5.37;;;9.70;1.00;;;;;;5063606;28;20443;-82
2024/03/17 01:15:36;;;;;;;5.00;4.60;;;9.70;1.00;;;;;;5070170;28;20439;-83
2024/03/17 01:18:05;;;;;;;5.90;5.30;;;9.60;1.00;;;;;;5076134;28;20458;-81
2024/03/17 01:20:32;;;;;;;5.77;5.27;;;9.70;1.00;;;;;;5069793;28;20441;-81
2024/03/17 01:22:59;;;;;;;5.80;5.30;;;9.70;1.00;;;;;;5073426;28;20441;-82
2024/03/17 01:25:27;;;;;;;6.63;5.13;;;9.70;1.00;;;;;;5075054;28;20470;-83
2024/03/17 01:27:54;;;;;;;5.40;5.00;;;9.70;1.00;;;;;;5065053;28;20446;-82
2024/03/17 01:30:21;;;;;;;5.40;4.87;;;9.60;1.00;;;;;;5066765;28;20438;-84
2024/03/17 01:32:51;;;;;;;5.87;5.47;;;9.50;1.00;;;;;;5065026;28;20463;-83
2024/03/17 01:35:17;;;;;;;5.50;5.00;;;9.60;1.00;;;;;;5068614;28;20503;-86
2024/03/17 01:37:44;;;;;;;5.23;4.90;;;9.60;1.00;;;;;;5074071;28;21219;-83
2024/03/17 01:40:11;;;;;;;6.93;5.50;;;9.50;1.00;;;;;;5064264;28;20451;-84
2024/03/17 01:42:39;;;;;;;5.43;5.03;;;9.50;1.00;;;;;;5063531;28;20479;-81
2024/03/17 01:45:26;;;;;;;5.23;4.73;;;9.50;1.00;;;;;;5054685;28;20488;-80
2024/03/17 01:47:57;;;;;;;6.20;5.63;;;9.60;1.00;;;;;;5065111;28;20540;-81
2024/03/17 01:50:25;;;;;;;5.60;5.00;;;9.70;1.00;;;;;;5061056;28;20525;-82
2024/03/17 01:52:54;;;;;;;5.47;5.03;;;9.70;1.00;;;;;;5071168;28;20515;-81
2024/03/17 01:55:21;;;;;;;5.17;4.63;;;9.70;1.00;;;;;;5064078;28;20567;-83
2024/03/17 01:57:50;;;;;;;5.67;5.13;;;9.80;1.00;;;;;;5067278;28;20438;-80
2024/03/17 02:00:16;;;;;;;6.17;4.80;;;9.70;1.00;;;;;;5070019;28;20457;-81
2024/03/17 02:02:44;;;;;;;4.87;4.50;;;9.80;1.00;;;;;;5069335;28;20517;-83
2024/03/17 02:05:12;;;;;;;4.90;4.40;;;9.60;1.00;;;;;;5065845;28;20502;-81
2024/03/17 02:07:39;;;;;;;5.27;4.87;;;9.50;1.00;;;;;;5067807;28;20490;-81
2024/03/17 02:10:08;;;;;;;5.73;4.77;;;9.50;1.00;;;;;;5050646;28;20462;-86
2024/03/17 02:12:36;;;;;;;4.50;4.20;;;9.50;1.00;;;;;;5058360;28;20465;-80
2024/03/17 02:15:05;;;;;;;7.10;5.27;;;9.60;1.00;;;;;;5056187;28;20782;-81
2024/03/17 02:17:32;;;;;;;6.03;4.50;;;9.60;1.00;;;;;;5056045;28;20554;-88
2024/03/17 02:20:00;;;;;;;5.70;5.03;;;9.70;1.00;;;;;;5070811;28;20445;-80
2024/03/17 02:22:27;;;;;;;5.40;4.90;;;9.80;1.00;;;;;;5071082;28;20461;-82
2024/03/17 02:24:55;;;;;;;5.17;4.67;;;9.80;1.00;;;;;;5066390;28;20470;-82
2024/03/17 02:27:21;;;;;;;7.10;5.37;;;9.80;1.00;;;;;;5069606;28;20518;-84
2024/03/17 02:29:48;;;;;;;5.97;5.13;;;9.80;1.00;;;;;;5059003;28;20531;-81
2024/03/17 02:32:15;;;;;;;4.50;4.20;;;9.70;1.00;;;;;;5064293;28;20478;-82
2024/03/17 02:34:44;;;;;;;5.03;4.37;;;9.70;1.00;;;;;;5074500;28;20470;-83
2024/03/17 02:37:10;;;;;;;5.97;5.43;;;9.70;1.00;;;;;;5074634;28;20552;-81
2024/03/17 02:39:39;;;;;;;4.57;4.17;;;9.70;1.00;;;;;;5071649;28;20454;-81
2024/03/17 02:42:08;;;;;;;5.97;5.27;;;9.70;1.00;;;;;;5070501;28;20482;-82
2024/03/17 02:44:37;;;;;;;7.70;5.23;;;9.70;1.00;;;;;;5070387;28;20460;-80
2024/03/17 02:47:08;;;;;;;5.13;4.70;;;9.70;1.00;;;;;;5067482;28;20460;-81
2024/03/17 02:49:36;;;;;;;6.70;6.10;;;9.80;1.00;;;;;;5064007;28;20443;-80
2024/03/17 02:52:05;;;;;;;5.30;4.90;;;9.70;1.00;;;;;;5069748;28;20473;-80
2024/03/17 02:54:32;;;;;;;5.27;4.77;;;9.70;1.00;;;;;;5059030;28;20513;-82
2024/03/17 02:57:01;;;;;;;6.23;5.63;;;9.60;1.00;;;;;;5054699;28;20450;-81
2024/03/17 02:59:28;;;;;;;5.37;4.87;;;9.60;1.00;;;;;;5069571;28;20798;-79
2024/03/17 03:01:56;;;;;;;5.00;4.60;;;9.60;1.00;;;;;;5069068;28;20484;-81
2024/03/17 03:04:23;;;;;;;6.47;4.73;;;9.60;1.00;;;;;;5074473;28;21314;-85
2024/03/17 03:06:50;;;;;;;5.20;4.73;;;9.60;1.00;;;;;;5072064;28;20481;-82
2024/03/17 03:09:22;;;;;;;5.37;5.03;;;9.60;1.00;;;;;;5075036;28;20471;-81
2024/03/17 03:11:49;;;;;;;5.23;4.73;;;9.60;1.00;;;;;;5069872;28;20483;-88
2024/03/17 03:14:18;;;;;;;7.53;4.53;;;9.50;1.00;;;;;;5069745;28;20485;-81
2024/03/17 03:16:45;;;;;;;4.73;4.33;;;9.60;1.00;;;;;;5065180;28;20460;-81
2024/03/17 03:19:12;;;;;;;5.77;5.20;;;9.60;1.00;;;;;;5071288;28;20603;-82
2024/03/17 03:21:40;;;;;;;5.13;4.63;;;9.50;1.00;;;;;;5055285;28;20493;-81
2024/03/17 03:24:07;;;;;;;5.20;4.70;;;9.50;1.00;;;;;;5072651;28;20453;-81
2024/03/17 03:26:35;;;;;;;5.37;4.87;;;9.50;1.00;;;;;;5069665;28;20564;-82
2024/03/17 03:29:04;;;;;;;5.00;4.60;;;9.40;1.00;;;;;;5072515;28;20478;-80
2024/03/17 03:31:32;;;;;;;5.10;4.67;;;9.40;1.00;;;;;;5052206;28;20563;-83
2024/03/17 03:34:01;;;;;;;5.70;5.20;;;9.50;1.00;;;;;;5058791;28;20481;-81
2024/03/17 03:36:29;;;;;;;5.63;5.00;;;9.40;1.00;;;;;;5079373;28;20453;-81
2024/03/17 03:38:56;;;;;;;4.40;4.00;;;9.40;1.00;;;;;;5058252;28;21441;-80
2024/03/17 03:41:24;;;;;;;4.90;4.50;;;9.50;1.00;;;;;;5049599;28;20499;-82
2024/03/17 03:43:52;;;;;;;4.60;4.30;;;9.50;1.00;;;;;;5074690;28;20450;-80
2024/03/17 03:46:20;;;;;;;5.17;4.77;;;9.50;1.00;;;;;;5068136;28;20510;-81
2024/03/17 03:48:49;;;;;;;5.10;4.60;;;9.50;1.00;;;;;;5057673;28;20491;-81
2024/03/17 03:51:16;;;;;;;5.00;4.57;;;9.50;1.00;;;;;;5069210;28;20523;-81
2024/03/17 03:53:43;;;;;;;5.07;4.67;;;9.50;1.00;;;;;;5064171;28;20550;-82
2024/03/17 03:56:10;;;;;;;5.33;4.83;;;9.50;1.00;;;;;;5069342;28;20537;-80
2024/03/17 03:58:40;;;;;;;5.30;4.90;;;9.50;1.00;;;;;;5072303;28;20528;-82
2024/03/17 04:01:07;;;;;;;5.73;4.10;;;9.50;1.00;;;;;;5067075;28;20477;-80
2024/03/17 04:03:35;;;;;;;5.70;5.10;;;9.40;1.00;;;;;;5079209;28;20453;-81
2024/03/17 04:06:05;;;;;;;5.23;4.83;;;9.40;1.00;;;;;;5068222;28;20471;-84
2024/03/17 04:08:33;;;;;;;4.60;4.30;;;9.30;1.00;;;;;;5072748;28;20493;-82
2024/03/17 04:11:01;;;;;;;5.13;4.33;;;9.30;1.00;;;;;;5071857;28;20515;-82
2024/03/17 04:13:29;;;;;;;5.60;4.93;;;9.30;1.00;;;;;;5069680;28;20465;-84
2024/03/17 04:15:56;;;;;;;5.57;5.07;;;9.30;1.00;;;;;;5069697;28;20901;-82
2024/03/17 04:18:25;;;;;;;6.00;5.57;;;9.40;1.00;;;;;;5067033;28;20997;-83
2024/03/17 04:20:53;;;;;;;5.23;4.73;;;9.40;1.00;;;;;;5068903;28;20462;-81
2024/03/17 04:23:22;;;;;;;5.77;5.27;;;9.40;1.00;;;;;;5066067;28;20453;-83
2024/03/17 04:25:51;;;;;;;4.93;4.30;;;9.40;1.00;;;;;;5070163;28;20468;-83
2024/03/17 04:28:18;;;;;;;5.10;4.70;;;9.30;1.00;;;;;;5067583;28;20446;-83
2024/03/17 04:30:45;;;;;;;6.10;4.83;;;9.30;1.00;;;;;;5075423;28;20491;-82
2024/03/17 04:33:13;;;;;;;5.03;4.53;;;9.30;1.00;;;;;;5062435;28;20545;-82
2024/03/17 04:35:41;;;;;;;5.93;5.33;;;9.30;1.00;;;;;;5064422;28;20447;-81
2024/03/17 04:38:09;;;;;;;5.50;5.00;;;9.40;1.00;;;;;;5073033;28;20460;-80
2024/03/17 04:40:41;;;;;;;5.10;4.70;;;9.30;1.00;;;;;;5070350;28;20545;-83
2024/03/17 04:43:08;;;;;;;5.67;5.17;;;9.10;1.00;;;;;;5065552;28;21200;-80
2024/03/17 04:45:36;;;;;;;4.87;4.47;;;9.20;1.00;;;;;;5072980;28;20491;-81
2024/03/17 04:48:03;;;;;;;6.73;5.30;;;9.20;1.00;;;;;;5066657;28;20454;-83
2024/03/17 04:50:31;;;;;;;6.53;5.90;;;9.20;1.00;;;;;;5064704;28;20476;-87
2024/03/17 04:52:58;;;;;;;6.40;5.90;;;9.20;1.00;;;;;;5065655;28;20469;-81
2024/03/17 04:55:25;;;;;;;6.40;5.63;;;9.20;1.00;;;;;;5071376;28;20491;-82
2024/03/17 04:57:54;;;;;;;5.83;5.33;;;9.10;1.00;;;;;;5063825;28;20447;-84
2024/03/17 05:00:21;;;;;;;7.00;5.63;;;9.20;1.00;;;;;;5065436;28;20446;-86
2024/03/17 05:02:53;;;;;;;5.90;5.40;;;9.20;1.00;;;;;;5070225;28;21046;-81
2024/03/17 05:05:23;;;;;;;5.90;5.40;;;9.30;1.00;;;;;;5049730;28;20470;-80
2024/03/17 05:07:50;;;;;;;6.00;5.50;;;9.30;1.00;;;;;;5070672;28;20498;-81
2024/03/17 05:10:17;;;;;;;9.00;6.30;;;9.20;1.00;;;;;;5072073;28;20451;-81
2024/03/17 05:12:46;;;;;;;7.33;6.63;;;9.10;1.00;;;;;;5067064;28;20554;-80
2024/03/17 05:15:16;;;;;;;6.90;6.30;;;9.10;1.00;;;;;;5069579;28;20537;-82
2024/03/17 05:17:43;;;;;;;8.13;6.70;;;9.00;5.30;;;;;;5073087;28;20487;-81
2024/03/17 05:20:13;;;;;;;6.30;5.80;;;9.10;45.90;;;;;;5081864;28;20475;-81
2024/03/17 05:22:40;;;;;;;6.17;5.67;;;9.20;1.00;;;;;;5058788;28;20900;-82
2024/03/17 05:25:07;;;;;;;6.60;5.93;;;9.20;1.00;;;;;;5071889;28;20483;-80
2024/03/17 05:27:35;;;;;;;6.90;6.30;;;9.20;1.00;;;;;;5071169;28;20484;-83
2024/03/17 05:30:04;;;;;;;6.53;5.80;;;9.20;1.00;;;;;;5071322;28;20490;-84
2024/03/17 05:32:33;;;;;;;7.00;6.30;;;9.10;1.00;;;;;;5061048;28;20470;-85
2024/03/17 05:35:00;;;;;;;7.77;6.20;;;9.00;1.00;;;;;;5071856;28;20449;-83
2024/03/17 05:37:28;;;;;;;7.07;6.40;;;9.10;1.00;;;;;;5076530;28;20446;-82
2024/03/17 05:39:55;;;;;;;5.73;5.23;;;9.00;5.10;;;;;;5073805;28;20527;-83
2024/03/17 05:42:22;;;;;;;9.43;6.63;;;9.10;35.30;;;;;;5058396;28;21338;-84
2024/03/17 05:44:49;;;;;;;5.53;5.13;;;9.20;11.50;;;;;;5074980;28;20469;-83
2024/03/17 05:47:18;;;;;;;7.10;6.27;;;9.20;1.00;;;;;;5070386;28;20985;-82
2024/03/17 05:49:46;;;;;;;6.27;5.67;;;9.10;1.00;;;;;;5070838;28;20513;-82
2024/03/17 05:52:14;;;;;;;6.90;6.20;;;9.10;1.00;;;;;;5072279;28;20476;-80
2024/03/17 05:54:41;;;;;;;6.00;5.60;;;9.10;1.00;;;;;;5066150;28;20509;-83
2024/03/17 05:57:09;;;;;;;5.93;5.53;;;9.10;1.00;;;;;;5071007;28;20451;-80
2024/03/17 05:59:36;;;;;;;6.30;5.80;;;9.10;1.00;;;;;;5066281;28;20455;-82
2024/03/17 06:02:04;;;;;;;6.60;5.30;;;9.00;1.00;;;;;;5072993;28;20571;-82
2024/03/17 06:04:31;;;;;;;7.43;6.67;;;9.00;23.40;;;;;;5065062;28;20471;-80
2024/03/17 06:07:00;;;;;;;5.37;5.00;;;9.10;28.10;;;;;;5062532;28;20474;-81
2024/03/17 06:09:27;;;;;;;5.80;5.30;;;9.10;53.30;;;;;;5057611;28;20966;-81
2024/03/17 06:11:54;;;;;;;5.47;5.07;;;9.20;1.00;;;;;;5064315;28;20470;-82
2024/03/17 06:14:22;;;;;;;5.77;5.37;;;9.20;1.00;;;;;;5068393;28;20479;-83
2024/03/17 06:16:49;;;;;;;5.93;5.43;;;9.20;1.00;;;;;;5067198;28;20451;-80
2024/03/17 06:19:16;;;;;;;6.37;5.87;;;9.10;1.00;;;;;;5069069;28;20461;-82
2024/03/17 06:21:43;;;;;;;6.63;6.03;;;9.10;1.00;;;;;;5072518;28;20522;-79
2024/03/17 06:24:12;;;;;;;5.83;5.30;;;9.10;20.90;;;;;;5068362;28;22713;-82
2024/03/17 06:26:39;;;;;;;5.87;5.37;;;9.20;49.80;;;;;;5063690;28;20553;-80
2024/03/17 06:29:06;;;;;;;5.87;5.37;;;9.30;35.40;;;;;;5072054;28;20855;-81
2024/03/17 06:31:33;;;;;;;7.30;6.70;;;9.30;53.30;;;;;;5072267;28;20509;-81
2024/03/17 06:34:00;;;;;;;6.20;5.70;;;9.30;42.70;;;;;;5060540;28;20473;-82
2024/03/17 06:36:28;;;;;;;7.00;6.33;;;9.30;32.50;;;;;;5066377;28;20483;-81
2024/03/17 06:38:55;;;;;;;6.37;5.80;;;9.40;99.90;;;;;;5072737;28;20474;-81
2024/03/17 06:41:24;;;;;;;31.30;25.07;;;9.50;99.90;;;;;;5069596;28;20493;-80
2024/03/17 06:43:51;;;;;;;15.93;13.70;;;9.60;75.10;;;;;;5063544;28;20492;-84
2024/03/17 06:46:18;;;;;;;9.53;8.63;;;9.70;99.90;;;;;;5073638;28;20514;-79
2024/03/17 06:48:45;;;;;;;7.70;6.90;;;9.80;99.90;;;;;;5066810;28;20461;-79
2024/03/17 06:51:13;;;;;;;6.90;6.30;;;9.90;99.90;;;;;;5069931;28;20543;-83
2024/03/17 06:53:40;;;;;;;8.13;7.53;;;10.00;98.00;;;;;;5075465;28;20515;-82
2024/03/17 06:56:07;;;;;;;8.33;6.73;;;10.10;99.90;;;;;;5060986;28;20467;-83
2024/03/17 06:58:36;;;;;;;7.60;6.90;;;10.10;99.90;;;;;;5068527;28;20501;-84
2024/03/17 07:01:04;;;;;;;7.30;6.07;;;10.20;99.90;;;;;;5071916;28;20476;-82
2024/03/17 07:03:32;;;;;;;6.80;5.97;;;10.30;99.90;;;;;;5079982;28;20465;-86
2024/03/17 07:06:02;;;;;;;7.00;6.40;;;10.40;99.90;;;;;;5085362;28;20474;-82
2024/03/17 07:08:30;;;;;;;6.93;6.37;;;10.40;99.90;;;;;;5074133;28;20451;-81
2024/03/17 07:10:58;;;;;;;6.60;6.10;;;10.50;43.70;;;;;;5071770;28;20536;-82
2024/03/17 07:13:25;;;;;;;6.30;5.70;;;10.70;97.60;;;;;;5078454;28;20509;-80
2024/03/17 07:15:54;;;;;;;7.37;6.70;;;10.70;32.00;;;;;;5069585;28;20477;-82
2024/03/17 07:18:21;;;;;;;6.93;6.50;;;10.70;20.50;;;;;;5075885;28;20445;-80
2024/03/17 07:20:48;;;;;;;7.13;6.60;;;10.70;22.80;;;;;;5069020;28;20498;-80
2024/03/17 07:23:16;;;;;;;8.90;8.13;;;10.70;37.30;;;;;;5064617;28;20493;-81
2024/03/17 07:25:52;;;;;;;8.27;7.53;;;10.80;54.00;;;;;;5073250;28;20661;-80
2024/03/17 07:28:19;;;;;;;8.40;7.60;;;10.80;31.10;;;;;;5070652;28;20450;-81
2024/03/17 07:30:48;;;;;;;10.03;9.10;;;10.90;99.90;;;;;;5073320;28;20215;-81
2024/03/17 07:33:17;;;;;;;7.90;7.03;;;11.00;28.10;;;;;;5065142;28;20445;-81
2024/03/17 07:35:52;;;;;;;6.30;5.90;;;11.20;1.00;;;;;;5075464;28;20453;-82
2024/03/17 07:38:20;;;;;;;7.10;6.43;;;11.10;1.00;;;;;;5069230;28;20444;-79
2024/03/17 07:40:57;;;;;;;8.60;7.90;;;11.20;1.00;;;;;;5081170;28;20449;-80
2024/03/17 07:43:24;;;;;;;9.00;8.30;;;11.30;1.00;;;;;;5073856;28;20485;-85
2024/03/17 07:46:02;;;;;;;8.60;8.00;;;11.30;1.00;;;;;;5057502;28;20549;-80
2024/03/17 07:48:32;;;;;;;9.80;8.90;;;11.30;1.00;;;;;;5070623;28;20510;-81
2024/03/17 07:51:02;;;;;;;10.93;9.87;;;11.30;1.00;;;;;;5067803;28;20462;-82
2024/03/17 07:53:29;;;;;;;11.50;10.50;;;11.30;1.00;;;;;;5070789;28;20438;-82
2024/03/17 07:56:00;;;;;;;10.80;9.80;;;11.40;1.00;;;;;;5056683;28;20439;-80
2024/03/17 07:58:28;;;;;;;13.73;12.30;;;11.40;1.00;;;;;;5067153;28;20549;-80
2024/03/17 08:01:00;;;;;;;11.73;10.63;;;11.40;1.00;;;;;;5068896;28;20540;-81
2024/03/17 08:03:28;;;;;;;9.10;8.30;;;11.40;1.00;;;;;;5073364;28;20469;-82
2024/03/17 08:05:57;;;;;;;10.10;9.30;;;11.40;1.00;;;;;;5069912;28;20814;-81
2024/03/17 08:08:24;;;;;;;9.10;7.60;;;11.30;1.00;;;;;;5072317;28;20597;-85
2024/03/17 08:10:52;;;;;;;9.17;8.40;;;11.30;1.00;;;;;;5068286;28;20505;-83
2024/03/17 08:13:20;;;;;;;8.10;7.50;;;11.30;1.00;;;;;;5072377;28;20450;-83
2024/03/17 08:15:55;;;;;;;8.83;8.13;;;11.30;1.00;;;;;;5074101;28;20489;-82
2024/03/17 08:18:22;;;;;;;8.90;8.20;;;11.40;1.00;;;;;;5071236;28;20439;-81
2024/03/17 08:20:49;;;;;;;8.27;7.53;;;11.50;1.00;;;;;;5074412;28;20505;-84
2024/03/17 08:23:18;;;;;;;6.23;5.83;;;11.60;1.00;;;;;;5076748;28;20519;-81
2024/03/17 08:25:53;;;;;;;5.40;5.00;;;11.80;1.00;;;;;;5073003;28;20471;-81
2024/03/17 08:28:20;;;;;;;7.10;6.70;;;11.90;1.00;;;;;;5074624;28;20569;-82
2024/03/17 08:30:53;;;;;;;7.03;6.43;;;12.00;1.00;;;;;;5076561;28;20454;-82
2024/03/17 08:33:20;;;;;;;7.17;6.50;;;12.10;99.90;;;;;;5070782;28;20805;-84
2024/03/17 08:35:54;;;;;;;6.23;5.70;;;12.10;99.90;;;;;;5075812;28;20430;-81
2024/03/17 08:38:24;;;;;;;5.70;5.30;;;12.30;99.90;;;;;;5059391;28;20528;-81
2024/03/17 08:40:51;;;;;;;5.47;5.17;;;12.50;99.90;;;;;;5068819;28;20449;-80
2024/03/17 08:43:18;;;;;;;6.00;5.43;;;12.60;99.90;;;;;;5066724;28;20452;-83
2024/03/17 08:45:46;;;;;;;6.10;5.60;;;12.70;99.90;;;;;;5065468;28;20513;-80
2024/03/17 08:48:13;;;;;;;5.30;4.90;;;12.90;99.90;;;;;;5072045;28;21017;-82
2024/03/17 08:50:40;;;;;;;5.68;5.18;;;13.00;99.90;;;;;;5071255;28;20426;-82
2024/03/17 08:53:07;;;;;;;5.93;4.97;;;13.20;99.90;;;;;;5073724;28;20258;-80
2024/03/17 08:55:36;;;;;;;4.23;4.03;;;13.40;99.90;;;;;;5060836;28;20496;-81
2024/03/17 08:58:03;;;;;;;4.67;4.37;;;13.70;99.90;;;;;;5070861;28;20473;-82
2024/03/17 09:00:32;;;;;;;4.63;4.33;;;13.70;99.90;;;;;;5056754;28;20506;-80
2024/03/17 09:02:59;;;;;;;4.57;4.20;;;13.70;99.90;;;;;;5070772;28;20522;-79
2024/03/17 09:05:26;;;;;;;4.03;3.73;;;13.90;99.90;;;;;;5070916;28;20457;-79
2024/03/17 09:07:55;;;;;;;4.00;3.57;;;13.80;99.90;;;;;;5068559;28;21358;-78
2024/03/17 09:10:24;;;;;;;3.93;3.53;;;13.60;99.90;;;;;;5071342;28;20485;-83
2024/03/17 09:12:52;;;;;;;3.67;3.37;;;13.60;99.90;;;;;;5080901;28;20570;-80
2024/03/17 09:15:20;;;;;;;3.17;3.00;;;13.60;99.90;;;;;;5072856;28;20528;-86
2024/03/17 09:17:47;;;;;;;3.13;2.93;;;13.50;99.90;;;;;;5067049;28;20454;-81
2024/03/17 09:20:17;;;;;;;4.20;3.37;;;13.40;99.90;;;;;;5068866;28;20827;-78
2024/03/17 09:22:44;;;;;;;4.07;3.80;;;13.20;99.90;;;;;;5065956;28;21232;-79
2024/03/17 09:25:11;;;;;;;4.03;3.73;;;13.40;99.90;;;;;;5072985;28;20532;-83
2024/03/17 09:27:38;;;;;;;2.83;2.63;;;13.40;99.90;;;;;;5070252;28;21162;-82
2024/03/17 09:30:09;;;;;;;3.50;3.00;;;13.40;99.90;;;;;;5078391;28;20456;-80
2024/03/17 09:32:36;;;;;;;2.87;2.67;;;13.50;99.90;;;;;;5059451;28;20496;-82
2024/03/17 09:35:04;;;;;;;2.80;2.60;;;13.50;99.90;;;;;;5072355;28;20484;-79
2024/03/17 09:37:32;;;;;;;3.00;2.80;;;13.50;99.90;;;;;;5050261;28;20541;-79
2024/03/17 09:39:59;;;;;;;2.93;2.73;;;13.50;99.90;;;;;;5065047;28;20467;-81
2024/03/17 09:42:28;;;;;;;3.03;2.83;;;13.50;99.90;;;;;;5062275;28;20554;-80
2024/03/17 09:44:56;;;;;;;2.97;2.73;;;13.50;99.90;;;;;;5066736;28;20479;-80
2024/03/17 09:47:26;;;;;;;3.30;3.00;;;13.40;99.90;;;;;;5067882;28;20567;-80
2024/03/17 09:49:54;;;;;;;3.40;2.93;;;13.40;99.90;;;;;;5048862;28;20561;-81
2024/03/17 09:52:23;;;;;;;3.63;3.33;;;13.30;99.90;;;;;;5056474;28;20512;-79
2024/03/17 09:54:58;;;;;;;3.43;3.13;;;13.30;99.90;;;;;;5064224;28;20497;-81
2024/03/17 09:57:26;;;;;;;3.20;3.00;;;13.30;99.90;;;;;;5070864;28;20437;-85
2024/03/17 09:59:54;;;;;;;2.90;2.70;;;13.30;99.90;;;;;;5060881;28;20447;-79
2024/03/17 10:02:23;;;;;;;3.70;3.40;;;13.40;99.90;;;;;;5061398;28;20475;-82
2024/03/17 10:04:51;;;;;;;3.47;3.17;;;13.60;99.90;;;;;;5069530;28;20450;-80
2024/03/17 10:07:18;;;;;;;3.00;2.80;;;13.80;99.90;;;;;;5056817;28;20441;-83
2024/03/17 10:09:45;;;;;;;3.10;2.87;;;13.90;99.90;;;;;;5072970;28;21253;-80
2024/03/17 10:12:28;;;;;;;2.40;2.30;;;14.20;99.90;;;;;;5073473;28;21288;-80
2024/03/17 10:15:04;;;;;;;3.50;3.30;;;14.50;99.90;;;;;;5071420;28;20446;-80
2024/03/17 10:17:35;;;;;;;2.60;2.50;;;14.50;99.90;;;;;;5068102;28;20470;-80
2024/03/17 10:20:16;;;;;;;3.00;2.80;;;14.60;99.90;;;;;;5070833;28;20533;-79
2024/03/17 10:23:01;;;;;;;3.03;2.67;;;14.70;99.90;;;;;;5072850;28;20467;-79
2024/03/17 10:25:29;;;;;;;7.50;2.97;;;14.80;99.90;;;;;;5076324;28;20443;-80
2024/03/17 10:27:57;;;;;;;2.40;2.20;;;14.70;99.90;;;;;;5074664;28;20503;-81
2024/03/17 10:30:26;;;;;;;3.10;2.90;;;14.60;99.90;;;;;;5075092;28;20812;-83
2024/03/17 10:32:56;;;;;;;3.50;3.20;;;14.60;99.90;;;;;;5071137;28;20470;-81
2024/03/17 10:35:31;;;;;;;2.87;2.33;;;14.60;99.90;;;;;;5068730;28;21293;-81
2024/03/17 10:37:59;;;;;;;3.13;2.77;;;14.50;99.90;;;;;;5073860;28;20450;-78
2024/03/17 10:40:29;;;;;;;3.10;2.90;;;14.40;99.90;;;;;;5062944;28;20497;-79
2024/03/17 10:42:57;;;;;;;3.07;2.20;;;14.20;99.90;;;;;;5064389;28;20536;-82
2024/03/17 10:45:24;;;;;;;2.90;2.70;;;14.30;99.90;;;;;;5078348;28;20440;-81
2024/03/17 10:47:53;;;;;;;3.20;3.00;;;14.30;99.90;;;;;;5078713;28;20506;-81
2024/03/17 10:50:23;;;;;;;2.50;2.30;;;14.40;99.90;;;;;;5080285;28;20482;-83
2024/03/17 10:52:52;;;;;;;3.30;3.00;;;14.40;99.90;;;;;;5078097;28;20506;-83
2024/03/17 10:55:24;;;;;;;3.37;3.07;;;14.40;99.90;;;;;;5075778;28;20485;-82
2024/03/17 10:57:53;;;;;;;2.30;2.10;;;14.50;99.90;;;;;;5074313;28;21041;-84
2024/03/17 11:00:22;;;;;;;2.43;2.20;;;14.60;99.90;;;;;;5080816;28;20995;-83
2024/03/17 11:02:51;;;;;;;2.50;2.30;;;14.60;99.90;;;;;;5076536;28;20458;-80
2024/03/17 11:05:23;;;;;;;3.37;2.73;;;14.60;99.90;;;;;;5083628;28;20447;-80
2024/03/17 11:07:54;;;;;;;2.50;2.30;;;14.60;99.90;;;;;;5060871;28;20958;-80
2024/03/17 11:10:24;;;;;;;2.83;2.50;;;14.60;99.90;;;;;;5075110;28;20452;-82
2024/03/17 11:12:52;;;;;;;2.83;2.63;;;14.50;99.90;;;;;;5050940;28;20533;-79
2024/03/17 11:15:40;;;;;;;4.73;2.40;;;14.40;99.90;;;;;;5071004;28;20574;-78
2024/03/17 11:18:31;;;;;;;2.60;2.03;;;14.30;99.90;;;;;;5068772;28;20463;-80
2024/03/17 11:21:01;;;;;;;1.70;1.60;;;14.30;99.90;;;;;;5069391;28;20443;-79
2024/03/17 11:23:30;;;;;;;1.97;1.70;;;14.50;99.90;;;;;;5064165;28;20489;-80
2024/03/17 11:25:58;;;;;;;2.60;1.67;;;14.60;99.90;;;;;;5058959;28;20565;-81
2024/03/17 11:28:51;;;;;;;4.40;1.93;;;14.60;99.90;;;;;;5063916;28;20475;-81
2024/03/17 11:31:46;;;;;;;2.00;1.73;;;14.70;99.90;;;;;;5071502;28;21068;-80
2024/03/17 11:34:32;;;;;;;2.03;1.93;;;14.70;99.90;;;;;;5065134;28;20907;-80
2024/03/17 11:37:03;;;;;;;3.80;1.97;;;14.70;99.90;;;;;;5069024;28;20562;-80
2024/03/17 11:39:55;;;;;;;2.33;2.10;;;14.70;99.90;;;;;;5067347;28;20463;-79
2024/03/17 11:42:24;;;;;;;1.93;1.83;;;14.70;99.90;;;;;;5065559;28;20467;-80
2024/03/17 11:45:15;;;;;;;1.80;1.70;;;14.60;99.90;;;;;;5059255;28;20455;-80
2024/03/17 11:47:43;;;;;;;1.80;1.70;;;14.60;99.90;;;;;;5064483;28;20471;-80
2024/03/17 11:50:10;;;;;;;1.80;1.50;;;14.60;99.90;;;;;;5075228;28;20493;-80
2024/03/17 11:52:43;;;;;;;2.13;2.03;;;14.70;99.90;;;;;;5067660;28;20872;-79
2024/03/17 11:55:16;;;;;;;3.30;1.70;;;14.60;99.90;;;;;;5058142;28;20506;-81
2024/03/17 11:57:45;;;;;;;2.23;1.80;;;14.60;99.90;;;;;;5061166;28;20443;-79
2024/03/17 12:00:23;;;;;;;1.63;1.50;;;14.60;99.90;;;;;;5055798;28;20442;-81
2024/03/17 12:02:50;;;;;;;1.93;1.83;;;14.60;99.90;;;;;;5066813;28;21051;-82
2024/03/17 12:05:17;;;;;;;1.87;1.50;;;14.50;99.90;;;;;;5052218;28;20454;-80
2024/03/17 12:07:45;;;;;;;1.70;1.60;;;14.60;99.90;;;;;;5065088;28;20487;-82
2024/03/17 12:10:14;;;;;;;2.67;1.90;;;14.60;99.90;;;;;;5063605;28;20448;-82
2024/03/17 12:12:41;;;;;;;2.13;1.90;;;14.60;99.90;;;;;;5069045;28;20494;-79
2024/03/17 12:15:19;;;;;;;2.00;1.80;;;14.50;99.90;;;;;;5066228;28;20829;-81
2024/03/17 12:17:47;;;;;;;1.92;1.80;;;14.60;99.90;;;;;;5064979;28;20483;-82
2024/03/17 12:20:18;;;;;;;1.77;1.67;;;14.50;99.90;;;;;;5068565;28;20238;-78
2024/03/17 12:22:47;;;;;;;1.93;1.70;;;14.50;99.90;;;;;;5058327;28;20558;-80
2024/03/17 12:25:17;;;;;;;2.17;1.97;;;14.60;99.90;;;;;;5065348;28;20479;-79
2024/03/17 12:27:46;;;;;;;2.60;2.20;;;14.60;99.90;;;;;;5057913;28;20453;-81
2024/03/17 12:30:13;;;;;;;1.67;1.57;;;14.50;99.90;;;;;;5067517;28;20450;-80
2024/03/17 12:32:41;;;;;;;4.90;3.17;;;14.40;99.90;;;;;;5072402;28;20586;-81
2024/03/17 12:35:13;;;;;;;1.80;1.70;;;14.40;99.90;;;;;;5067545;28;20455;-79
2024/03/17 12:37:40;;;;;;;1.83;1.73;;;14.30;99.90;;;;;;5046316;28;20950;-80
2024/03/17 12:40:18;;;;;;;1.97;1.60;;;14.30;99.90;;;;;;5067361;28;20437;-79
2024/03/17 12:42:50;;;;;;;1.70;1.60;;;14.40;99.90;;;;;;5072019;28;20551;-80
2024/03/17 12:45:19;;;;;;;1.70;1.60;;;14.40;99.90;;;;;;5066203;28;20477;-81
2024/03/17 12:47:49;;;;;;;2.60;1.80;;;14.50;99.90;;;;;;5069581;28;20502;-80
2024/03/17 12:50:15;;;;;;;1.57;1.47;;;14.50;99.90;;;;;;5072009;28;20463;-81
2024/03/17 12:52:53;;;;;;;2.20;1.50;;;14.50;99.90;;;;;;5070658;28;20468;-81
2024/03/17 13:00:59;;;;;;;1.90;1.80;;;14.50;99.90;;;;;;5074230;28;20542;-80
2024/03/17 13:03:28;;;;;;;1.60;1.50;;;14.40;99.90;;;;;;5057510;28;20570;-84
2024/03/17 13:05:56;;;;;;;2.10;1.90;;;14.40;99.90;;;;;;5066238;28;20457;-82
2024/03/17 13:08:23;;;;;;;2.07;1.40;;;14.50;99.90;;;;;;5073701;28;20506;-79
2024/03/17 13:10:51;;;;;;;2.30;2.10;;;14.60;99.90;;;;;;5068789;28;21059;-82
2024/03/17 13:13:19;;;;;;;3.87;1.80;;;14.60;99.90;;;;;;5066038;28;20455;-81